createdAt,value
2023-04-16T00:01:07.732Z,10.71
2023-04-16T00:03:40.385Z,10.68
2023-04-16T00:06:13.458Z,10.71
2023-04-16T00:08:45.498Z,10.77
2023-04-16T00:11:17.581Z,10.72
2023-04-16T00:13:49.619Z,10.70
2023-04-16T00:16:21.781Z,10.74
2023-04-16T00:18:53.682Z,10.75
2023-04-16T00:21:26.359Z,10.72
2023-04-16T00:23:56.845Z,10.70
2023-04-16T00:26:29.163Z,10.72
2023-04-16T00:29:01.894Z,10.73
2023-04-16T00:31:34.974Z,10.75
2023-04-16T00:34:08.632Z,10.75
2023-04-16T00:36:41.092Z,10.74
2023-04-16T00:39:12.989Z,10.71
2023-04-16T00:41:45.429Z,10.74
2023-04-16T00:44:17.295Z,10.74
2023-04-16T00:46:49.852Z,10.79
2023-04-16T00:49:22.573Z,10.73
2023-04-16T00:51:54.889Z,10.70
2023-04-16T00:54:27.556Z,10.68
2023-04-16T00:57:01.553Z,10.68
2023-04-16T00:59:33.508Z,10.66
2023-04-16T01:02:05.853Z,10.73
2023-04-16T01:04:38.418Z,10.78
2023-04-16T01:07:10.291Z,10.71
2023-04-16T01:09:44.158Z,10.70
2023-04-16T01:12:16.134Z,10.74
2023-04-16T01:14:48.323Z,10.72
2023-04-16T01:17:20.612Z,10.75
2023-04-16T01:19:52.638Z,10.80
2023-04-16T01:22:25.017Z,10.86
2023-04-16T01:24:56.985Z,10.88
2023-04-16T01:27:29.264Z,10.88
2023-04-16T01:30:01.508Z,10.81
2023-04-16T01:32:43.355Z,10.84
2023-04-16T01:35:15.379Z,10.83
2023-04-16T01:37:47.449Z,10.88
2023-04-16T01:40:19.901Z,10.90
2023-04-16T01:42:52.553Z,10.88
2023-04-16T01:45:24.973Z,10.85
2023-04-16T01:47:57.018Z,10.79
2023-04-16T01:50:30.866Z,10.72
2023-04-16T01:53:05.014Z,10.72
2023-04-16T01:55:37.312Z,10.78
2023-04-16T01:58:11.005Z,10.81
2023-04-16T02:00:43.237Z,10.82
2023-04-16T02:03:15.559Z,10.84
2023-04-16T02:05:47.891Z,10.83
2023-04-16T02:08:20.433Z,10.82
2023-04-16T02:10:55.164Z,10.80
2023-04-16T02:13:28.361Z,10.78
2023-04-16T02:16:00.291Z,10.79
2023-04-16T02:18:52.785Z,10.77
2023-04-16T02:21:26.038Z,10.80
2023-04-16T02:23:58.271Z,10.81
2023-04-16T02:26:33.205Z,10.84
2023-04-16T02:29:09.716Z,10.85
2023-04-16T02:31:47.910Z,10.86
2023-04-16T02:34:20.284Z,10.87
2023-04-16T02:36:54.233Z,10.87
2023-04-16T02:39:26.468Z,10.87
2023-04-16T02:41:59.357Z,10.80
2023-04-16T02:44:31.945Z,10.79
2023-04-16T02:47:03.835Z,10.77
2023-04-16T02:49:35.810Z,10.72
2023-04-16T02:52:08.200Z,10.72
2023-04-16T02:54:40.325Z,10.71
2023-04-16T02:57:12.380Z,10.65
2023-04-16T02:59:44.238Z,10.65
2023-04-16T03:02:16.601Z,10.65
2023-04-16T03:04:47.283Z,10.59
2023-04-16T03:07:19.411Z,10.57
2023-04-16T03:09:51.865Z,10.64
2023-04-16T03:12:23.814Z,10.65
2023-04-16T03:14:55.991Z,10.70
2023-04-16T03:17:28.438Z,10.72
2023-04-16T03:20:00.965Z,10.76
2023-04-16T03:22:32.951Z,10.76
2023-04-16T03:25:05.678Z,10.68
2023-04-16T03:27:38.616Z,10.61
2023-04-16T03:30:12.087Z,10.63
2023-04-16T03:32:45.103Z,10.66
2023-04-16T03:35:17.358Z,10.60
2023-04-16T03:37:50.427Z,10.62
2023-04-16T03:40:22.912Z,10.68
2023-04-16T03:42:53.858Z,10.71
2023-04-16T03:45:26.356Z,10.74
2023-04-16T03:47:58.333Z,10.74
2023-04-16T03:50:30.997Z,10.75
2023-04-16T03:53:02.994Z,10.78
2023-04-16T03:55:35.930Z,10.74
2023-04-16T03:58:07.994Z,10.65
2023-04-16T04:00:42.376Z,10.65
2023-04-16T04:03:18.605Z,10.71
2023-04-16T04:05:52.521Z,10.67
2023-04-16T04:08:30.816Z,10.69
2023-04-16T04:11:02.797Z,10.65
2023-04-16T04:13:35.719Z,10.69
2023-04-16T04:16:10.344Z,10.72
2023-04-16T04:18:44.344Z,10.77
2023-04-16T04:21:16.748Z,10.79
2023-04-16T04:23:48.914Z,10.83
2023-04-16T04:26:21.057Z,10.78
2023-04-16T04:28:52.933Z,10.77
2023-04-16T04:31:25.147Z,10.81
2023-04-16T04:33:57.053Z,10.81
2023-04-16T04:36:29.243Z,10.85
2023-04-16T04:39:01.139Z,10.84
2023-04-16T04:41:34.034Z,10.85
2023-04-16T04:44:06.407Z,10.85
2023-04-16T04:46:38.464Z,10.80
2023-04-16T04:49:11.628Z,10.83
2023-04-16T04:51:43.755Z,10.87
2023-04-16T04:54:15.763Z,10.88
2023-04-16T04:56:48.151Z,10.88
2023-04-16T04:59:21.269Z,10.91
2023-04-16T05:01:53.942Z,10.92
2023-04-16T05:04:25.869Z,10.95
2023-04-16T05:06:57.549Z,10.96
2023-04-16T05:09:29.424Z,10.96
2023-04-16T05:12:01.934Z,10.98
2023-04-16T05:14:33.712Z,10.96
2023-04-16T05:17:05.573Z,10.97
2023-04-16T05:19:38.012Z,10.95
2023-04-16T05:22:09.734Z,10.96
2023-04-16T05:24:41.503Z,10.94
2023-04-16T05:27:13.390Z,10.95
2023-04-16T05:29:45.636Z,11.01
2023-04-16T05:32:16.438Z,11.04
2023-04-16T05:34:48.621Z,11.07
2023-04-16T05:37:20.734Z,11.09
2023-04-16T05:39:52.535Z,11.09
2023-04-16T05:42:24.367Z,11.10
2023-04-16T05:44:56.634Z,11.12
2023-04-16T05:47:28.819Z,11.14
2023-04-16T05:50:00.652Z,11.14
2023-04-16T05:52:32.568Z,11.12
2023-04-16T05:55:05.194Z,11.16
2023-04-16T05:57:37.084Z,11.18
2023-04-16T06:00:10.907Z,11.22
2023-04-16T06:02:46.248Z,11.26
2023-04-16T06:05:18.373Z,11.28
2023-04-16T06:07:50.218Z,11.32
2023-04-16T06:10:22.598Z,11.31
2023-04-16T06:12:54.895Z,11.34
2023-04-16T06:15:27.668Z,11.39
2023-04-16T06:18:00.202Z,11.41
2023-04-16T06:20:33.186Z,11.43
2023-04-16T06:23:05.177Z,11.45
2023-04-16T06:25:37.163Z,11.44
2023-04-16T06:28:09.561Z,11.43
2023-04-16T06:30:44.417Z,11.45
2023-04-16T06:33:17.195Z,11.49
2023-04-16T06:35:49.083Z,11.51
2023-04-16T06:38:21.228Z,11.58
2023-04-16T06:40:53.185Z,11.59
2023-04-16T06:43:27.291Z,11.60
2023-04-16T06:46:00.453Z,11.63
2023-04-16T06:48:32.480Z,11.67
2023-04-16T06:51:04.635Z,11.69
2023-04-16T06:53:37.936Z,11.72
2023-04-16T06:56:10.915Z,11.74
2023-04-16T06:58:43.035Z,11.70
2023-04-16T07:01:15.088Z,11.75
2023-04-16T07:03:47.915Z,11.72
2023-04-16T07:06:20.478Z,11.75
2023-04-16T07:08:52.815Z,11.80
2023-04-16T07:11:25.933Z,11.86
2023-04-16T07:13:58.912Z,11.88
2023-04-16T07:16:30.918Z,11.93
2023-04-16T07:19:04.660Z,11.93
2023-04-16T07:21:35.718Z,11.88
2023-04-16T07:24:08.693Z,11.90
2023-04-16T07:26:41.017Z,11.87
2023-04-16T07:29:13.498Z,11.86
2023-04-16T07:31:45.845Z,11.85
2023-04-16T07:34:17.740Z,11.88
2023-04-16T07:36:49.874Z,11.92
2023-04-16T07:39:22.125Z,11.92
2023-04-16T07:41:54.657Z,11.81
2023-04-16T07:44:27.137Z,11.81
2023-04-16T07:46:59.332Z,11.80
2023-04-16T07:49:31.668Z,11.75
2023-04-16T07:52:03.612Z,11.80
2023-04-16T07:54:35.924Z,11.82
2023-04-16T07:57:07.922Z,11.91
2023-04-16T07:59:40.832Z,11.97
2023-04-16T08:02:18.266Z,11.98
2023-04-16T08:04:50.494Z,12.02
2023-04-16T08:07:23.152Z,12.03
2023-04-16T08:09:55.687Z,12.00
2023-04-16T08:12:28.477Z,12.04
2023-04-16T08:15:01.392Z,12.06
2023-04-16T08:17:34.546Z,12.14
2023-04-16T08:20:09.494Z,12.19
2023-04-16T08:22:42.312Z,12.28
2023-04-16T08:25:15.152Z,12.35
2023-04-16T08:27:45.431Z,12.41
2023-04-16T08:30:18.350Z,12.45
2023-04-16T08:32:51.276Z,12.49
2023-04-16T08:35:23.413Z,12.54
2023-04-16T08:37:55.927Z,12.56
2023-04-16T08:40:30.025Z,12.59
2023-04-16T08:43:03.854Z,12.63
2023-04-16T08:45:37.451Z,12.68
2023-04-16T08:48:12.525Z,12.73
2023-04-16T08:50:45.711Z,12.78
2023-04-16T08:53:24.796Z,12.76
2023-04-16T08:56:00.868Z,12.81
2023-04-16T08:58:35.721Z,12.89
2023-04-16T09:01:10.445Z,12.98
2023-04-16T09:03:46.080Z,13.01
2023-04-16T09:06:18.554Z,13.04
2023-04-16T09:08:51.191Z,13.08
2023-04-16T09:11:26.903Z,13.18
2023-04-16T09:14:01.068Z,13.22
2023-04-16T09:16:36.466Z,13.29
2023-04-16T09:19:08.946Z,13.32
2023-04-16T09:21:41.231Z,13.35
2023-04-16T09:24:13.410Z,13.42
2023-04-16T09:26:46.156Z,13.49
2023-04-16T09:29:37.173Z,13.55
2023-04-16T09:32:11.332Z,13.56
2023-04-16T09:35:00.622Z,13.63
2023-04-16T09:37:33.396Z,13.74
2023-04-16T09:40:04.896Z,13.80
2023-04-16T09:42:38.571Z,13.96
2023-04-16T09:45:14.745Z,14.14
2023-04-16T09:47:47.480Z,14.19
2023-04-16T09:50:18.913Z,14.23
2023-04-16T09:52:52.851Z,14.37
2023-04-16T09:55:33.762Z,14.49
2023-04-16T09:58:06.672Z,14.59
2023-04-16T10:00:38.819Z,14.56
2023-04-16T10:03:17.579Z,14.47
2023-04-16T10:05:49.948Z,14.29
2023-04-16T10:08:25.230Z,14.19
2023-04-16T10:10:59.037Z,14.11
2023-04-16T10:13:31.888Z,14.15
2023-04-16T10:16:04.547Z,14.07
2023-04-16T10:18:39.618Z,14.16
2023-04-16T10:21:12.965Z,14.26
2023-04-16T10:23:46.905Z,14.22
2023-04-16T10:26:21.264Z,14.21
2023-04-16T10:28:54.200Z,14.30
2023-04-16T10:31:27.609Z,14.19
2023-04-16T10:34:06.144Z,14.21
2023-04-16T10:36:41.126Z,14.35
2023-04-16T10:39:17.202Z,14.36
2023-04-16T10:41:50.071Z,14.54
2023-04-16T10:44:26.123Z,14.65
2023-04-16T10:46:58.164Z,14.55
2023-04-16T10:49:30.637Z,14.57
2023-04-16T10:52:03.746Z,14.61
2023-04-16T10:54:38.034Z,14.49
2023-04-16T10:57:12.454Z,14.24
2023-04-16T10:59:46.198Z,14.06
2023-04-16T11:02:19.997Z,14.13
2023-04-16T11:04:52.446Z,14.06
2023-04-16T11:07:36.207Z,14.13
2023-04-16T11:10:14.557Z,14.10
2023-04-16T11:12:51.319Z,14.00
2023-04-16T11:15:31.202Z,14.00
2023-04-16T11:18:07.314Z,13.88
2023-04-16T11:20:45.433Z,13.74
2023-04-16T11:23:20.393Z,13.78
2023-04-16T11:26:00.454Z,13.72
2023-04-16T11:28:39.565Z,13.74
2023-04-16T11:31:15.101Z,13.68
2023-04-16T11:33:51.396Z,13.60
2023-04-16T11:38:28.867Z,13.56
2023-04-16T11:39:18.848Z,13.48
2023-04-16T11:41:52.777Z,13.31
2023-04-16T11:44:27.357Z,13.34
2023-04-16T11:46:59.516Z,13.39
2023-04-16T11:49:32.788Z,13.32
2023-04-16T11:52:04.844Z,13.39
2023-04-16T11:54:37.920Z,13.44
2023-04-16T11:57:10.229Z,13.43
2023-04-16T12:00:02.228Z,13.37
2023-04-16T12:02:46.530Z,13.26
2023-04-16T12:05:32.219Z,13.20
2023-04-16T12:08:06.958Z,13.18
2023-04-16T12:10:54.891Z,13.20
2023-04-16T12:13:27.222Z,13.19
2023-04-16T12:15:59.705Z,13.29
2023-04-16T12:18:30.302Z,13.35
2023-04-16T12:21:05.726Z,13.25
2023-04-16T12:23:37.709Z,13.16
2023-04-16T12:26:12.199Z,13.18
2023-04-16T12:28:44.104Z,13.14
2023-04-16T12:34:04.533Z,13.35
2023-04-16T12:36:36.409Z,14.33
2023-04-16T12:39:09.073Z,15.07
2023-04-16T12:41:40.492Z,15.62
2023-04-16T12:44:13.992Z,15.72
2023-04-16T12:46:46.505Z,15.68
2023-04-16T12:49:19.099Z,15.62
2023-04-16T12:51:51.662Z,15.95
2023-04-16T12:54:24.096Z,15.86
2023-04-16T12:56:55.934Z,15.50
2023-04-16T12:59:28.685Z,16.14
2023-04-16T13:02:01.913Z,16.48
2023-04-16T13:04:34.884Z,15.66
2023-04-16T13:07:08.164Z,16.08
2023-04-16T13:09:40.959Z,16.51
2023-04-16T13:12:11.474Z,16.53
2023-04-16T13:14:46.769Z,15.74
2023-04-16T13:17:18.693Z,16.11
2023-04-16T13:19:50.824Z,16.47
2023-04-16T13:22:22.774Z,16.12
2023-04-16T13:24:55.447Z,16.19
2023-04-16T13:27:25.981Z,16.00
2023-04-16T13:29:58.248Z,15.66
2023-04-16T13:32:30.785Z,15.32
2023-04-16T13:35:02.710Z,15.16
2023-04-16T13:37:35.584Z,14.96
2023-04-16T13:40:09.698Z,14.99
2023-04-16T13:42:42.315Z,14.90
2023-04-16T13:45:14.622Z,14.96
2023-04-16T13:47:48.266Z,14.95
2023-04-16T13:50:19.214Z,15.00
2023-04-16T13:52:51.254Z,14.98
2023-04-16T13:55:23.451Z,14.81
2023-04-16T13:57:56.329Z,14.72
2023-04-16T14:00:29.427Z,14.69
2023-04-16T14:03:02.901Z,14.64
2023-04-16T14:05:35.262Z,14.61
2023-04-16T14:08:07.313Z,14.44
2023-04-16T14:10:39.449Z,14.42
2023-04-16T14:13:13.248Z,14.33
2023-04-16T14:15:45.490Z,14.26
2023-04-16T14:18:17.479Z,14.27
2023-04-16T14:20:49.756Z,14.29
2023-04-16T14:23:21.904Z,14.33
2023-04-16T14:25:56.838Z,14.18
2023-04-16T14:28:27.719Z,14.06
2023-04-16T14:31:00.028Z,14.08
2023-04-16T14:33:32.931Z,14.15
2023-04-16T14:36:05.877Z,14.21
2023-04-16T14:38:38.804Z,14.25
2023-04-16T14:41:12.657Z,14.26
2023-04-16T14:43:44.914Z,14.23
2023-04-16T14:46:18.751Z,14.27
2023-04-16T14:48:51.490Z,14.25
2023-04-16T14:51:23.498Z,14.21
2023-04-16T14:53:55.530Z,14.18
2023-04-16T14:56:28.101Z,14.19
2023-04-16T14:59:00.434Z,14.13
2023-04-16T15:01:34.582Z,14.12
2023-04-16T15:04:06.745Z,14.12
2023-04-16T15:06:38.452Z,14.07
2023-04-16T15:09:10.547Z,13.99
2023-04-16T15:11:42.681Z,14.01
2023-04-16T15:14:14.849Z,13.95
2023-04-16T15:16:49.578Z,13.83
2023-04-16T15:19:21.668Z,13.72
2023-04-16T15:21:54.407Z,13.64
2023-04-16T15:24:27.152Z,13.62
2023-04-16T15:26:59.448Z,13.66
2023-04-16T15:29:32.252Z,13.61
2023-04-16T15:32:02.461Z,13.54
2023-04-16T15:34:34.692Z,13.48
2023-04-16T15:37:06.701Z,13.42
2023-04-16T15:39:38.746Z,13.39
2023-04-16T15:42:13.039Z,13.32
2023-04-16T15:44:45.356Z,13.36
2023-04-16T15:47:17.191Z,13.28
2023-04-16T15:49:49.432Z,13.23
2023-04-16T15:52:21.953Z,13.19
2023-04-16T15:54:52.814Z,13.17
2023-04-16T15:57:24.825Z,13.27
2023-04-16T16:00:06.564Z,13.39
2023-04-16T16:02:39.821Z,13.46
2023-04-16T16:05:14.484Z,13.51
2023-04-16T16:07:47.108Z,13.49
2023-04-16T16:10:20.595Z,13.42
2023-04-16T16:12:52.786Z,13.32
2023-04-16T16:15:24.890Z,13.30
2023-04-16T16:17:58.296Z,13.29
2023-04-16T16:20:30.746Z,13.20
2023-04-16T16:23:03.518Z,13.17
2023-04-16T16:25:35.912Z,13.06
2023-04-16T16:28:08.311Z,12.95
2023-04-16T16:30:40.722Z,12.88
2023-04-16T16:33:12.494Z,12.89
2023-04-16T16:35:44.369Z,12.86
2023-04-16T16:38:16.934Z,12.80
2023-04-16T16:40:48.834Z,12.84
2023-04-16T16:43:21.433Z,12.84
2023-04-16T16:45:53.427Z,12.79
2023-04-16T16:48:37.760Z,12.79
2023-04-16T16:51:34.877Z,12.74
2023-04-16T16:54:13.045Z,12.53
2023-04-16T16:56:45.244Z,12.59
2023-04-16T16:59:17.556Z,12.49
2023-04-16T17:01:49.563Z,12.38
2023-04-16T17:04:24.435Z,12.47
2023-04-16T17:06:57.192Z,12.46
2023-04-16T17:09:27.911Z,12.44
2023-04-16T17:11:59.835Z,12.42
2023-04-16T17:14:31.813Z,12.28
2023-04-16T17:17:04.424Z,12.28
2023-04-16T17:19:36.769Z,12.29
2023-04-16T17:22:08.985Z,12.26
2023-04-16T17:24:41.274Z,12.22
2023-04-16T17:27:13.542Z,12.16
2023-04-16T17:29:45.614Z,12.13
2023-04-16T17:32:17.680Z,12.11
2023-04-16T17:34:53.348Z,12.11
2023-04-16T17:37:37.338Z,12.12
2023-04-16T17:40:12.883Z,12.04
2023-04-16T17:42:45.576Z,12.09
2023-04-16T17:45:19.055Z,12.10
2023-04-16T17:47:51.427Z,12.12
2023-04-16T17:50:24.074Z,11.96
2023-04-16T17:52:54.973Z,11.98
2023-04-16T17:55:26.962Z,11.91
2023-04-16T17:58:00.564Z,11.96
2023-04-16T18:00:32.552Z,12.10
2023-04-16T18:03:04.865Z,13.70
2023-04-16T18:05:36.802Z,14.44
2023-04-16T18:08:09.254Z,14.33
2023-04-16T18:10:42.478Z,13.96
2023-04-16T18:13:14.445Z,13.37
2023-04-16T18:15:51.361Z,13.00
2023-04-16T18:18:24.107Z,12.68
2023-04-16T18:20:56.416Z,12.57
2023-04-16T18:23:28.754Z,12.47
2023-04-16T18:26:00.886Z,12.41
2023-04-16T18:28:33.431Z,12.09
2023-04-16T18:31:07.846Z,11.98
2023-04-16T18:33:55.768Z,12.01
2023-04-16T18:36:31.215Z,12.02
2023-04-16T18:39:03.331Z,12.06
2023-04-16T18:41:36.639Z,12.12
2023-04-16T18:44:10.771Z,12.14
2023-04-16T18:46:42.808Z,12.10
2023-04-16T18:49:15.852Z,12.10
2023-04-16T18:51:48.685Z,12.11
2023-04-16T18:54:21.164Z,12.11
2023-04-16T18:56:53.316Z,12.08
2023-04-16T18:59:26.310Z,12.00
2023-04-16T19:01:57.495Z,11.80
2023-04-16T19:04:41.154Z,11.84
2023-04-16T19:07:13.630Z,11.87
2023-04-16T19:09:45.830Z,11.84
2023-04-16T19:12:18.081Z,11.88
2023-04-16T19:14:50.058Z,11.89
2023-04-16T19:17:22.205Z,11.77
2023-04-16T19:19:54.698Z,11.68
2023-04-16T19:22:27.299Z,11.70
2023-04-16T19:25:02.207Z,11.66
2023-04-16T19:27:38.941Z,11.70
2023-04-16T19:30:15.019Z,11.64
2023-04-16T19:32:55.185Z,11.54
2023-04-16T19:35:30.433Z,11.55
2023-04-16T19:38:03.450Z,11.57
2023-04-16T19:40:35.792Z,11.50
2023-04-16T19:43:08.846Z,11.55
2023-04-16T19:45:47.410Z,11.50
2023-04-16T19:48:19.606Z,11.44
2023-04-16T19:50:52.280Z,11.47
2023-04-16T19:53:31.453Z,11.43
2023-04-16T19:56:04.090Z,11.47
2023-04-16T19:58:36.015Z,11.38
2023-04-16T20:01:28.351Z,11.32
2023-04-16T20:04:00.862Z,11.38
2023-04-16T20:06:33.607Z,11.43
2023-04-16T20:09:06.365Z,11.39
2023-04-16T20:11:36.783Z,11.43
2023-04-16T20:14:09.011Z,11.47
2023-04-16T20:16:41.208Z,11.49
2023-04-16T20:19:18.555Z,11.50
2023-04-16T20:21:50.790Z,11.36
2023-04-16T20:24:23.931Z,11.35
2023-04-16T20:26:56.737Z,11.30
2023-04-16T20:29:29.712Z,11.31
2023-04-16T20:32:04.116Z,11.31
2023-04-16T20:34:38.215Z,11.35
2023-04-16T20:37:10.476Z,11.29
2023-04-16T20:39:45.280Z,11.22
2023-04-16T20:42:21.974Z,11.25
2023-04-16T20:44:57.176Z,11.28
2023-04-16T20:47:29.733Z,11.33
2023-04-16T20:50:01.811Z,11.33
2023-04-16T20:52:34.549Z,11.29
2023-04-16T20:55:09.159Z,11.29
2023-04-16T20:57:41.215Z,11.24
2023-04-16T21:00:16.689Z,11.18
2023-04-16T21:02:49.397Z,11.24
2023-04-16T21:05:21.815Z,11.26
2023-04-16T21:07:55.778Z,11.23
2023-04-16T21:10:28.126Z,11.20
2023-04-16T21:13:00.138Z,11.22
2023-04-16T21:15:34.789Z,11.26
2023-04-16T21:18:07.164Z,11.19
2023-04-16T21:20:40.090Z,11.10
2023-04-16T21:23:12.083Z,11.07
2023-04-16T21:25:48.792Z,11.09
2023-04-16T21:28:21.207Z,11.10
2023-04-16T21:30:55.044Z,11.07
2023-04-16T21:33:27.061Z,11.10
2023-04-16T21:35:58.970Z,11.11
2023-04-16T21:38:31.083Z,11.09
2023-04-16T21:41:03.664Z,11.06
2023-04-16T21:43:36.017Z,11.04
2023-04-16T21:46:08.211Z,11.02
2023-04-16T21:48:40.041Z,11.02
2023-04-16T21:51:11.938Z,11.04
2023-04-16T21:53:44.261Z,10.99
2023-04-16T21:56:16.041Z,11.03
2023-04-16T21:58:47.835Z,11.09
2023-04-16T22:01:19.867Z,11.08
2023-04-16T22:03:52.390Z,10.97
2023-04-16T22:06:23.081Z,10.94
2023-04-16T22:08:54.769Z,10.91
2023-04-16T22:11:29.335Z,10.97
2023-04-16T22:14:01.054Z,10.96
2023-04-16T22:16:33.495Z,10.92
2023-04-16T22:19:05.502Z,10.97
2023-04-16T22:21:37.620Z,10.91
2023-04-16T22:24:10.285Z,10.90
2023-04-16T22:26:41.986Z,10.91
2023-04-16T22:29:13.867Z,10.88
2023-04-16T22:31:45.955Z,10.84
2023-04-16T22:34:18.332Z,10.89
2023-04-16T22:36:50.088Z,10.92
2023-04-16T22:39:22.677Z,10.85
2023-04-16T22:41:54.535Z,10.83
2023-04-16T22:44:26.475Z,10.82
2023-04-16T22:46:58.249Z,10.76
2023-04-16T22:49:33.071Z,10.76
2023-04-16T22:52:05.073Z,10.77
2023-04-16T22:54:36.902Z,10.77
2023-04-16T22:57:08.609Z,10.80
2023-04-16T22:59:40.654Z,10.71
2023-04-16T23:02:12.349Z,10.66
2023-04-16T23:04:44.201Z,10.57
2023-04-16T23:07:16.494Z,10.54
2023-04-16T23:09:48.355Z,10.61
2023-04-16T23:12:20.060Z,10.65
2023-04-16T23:14:53.098Z,10.69
2023-04-16T23:17:24.859Z,10.71
2023-04-16T23:19:56.728Z,10.74
2023-04-16T23:22:28.520Z,10.71
2023-04-16T23:25:00.303Z,10.72
2023-04-16T23:27:32.519Z,10.77
2023-04-16T23:30:05.302Z,10.75
2023-04-16T23:32:37.178Z,10.68
2023-04-16T23:35:10.954Z,10.67
2023-04-16T23:37:43.198Z,10.64
2023-04-16T23:40:15.290Z,10.65
2023-04-16T23:42:47.076Z,10.62
2023-04-16T23:45:19.159Z,10.60
2023-04-16T23:47:51.650Z,10.65
2023-04-16T23:50:23.482Z,10.67
2023-04-16T23:52:55.403Z,10.67
2023-04-16T23:55:27.441Z,10.68
2023-04-16T23:57:59.192Z,10.69
